Airfield :
LOGIN :

Register | Disclaimer

   EN    FR    IT 

 










Legend :    VFR   Marginal VFR   IFR   Intensive IFR   Very Intensive IFR
Visi :
Ceiling :
>= 8 km
>= 3000ft
5 to 8 km
1000 to 3000 ft
1500m to 5 km
500 to 1000 ft
800 to 1500m
200 to 500 ft
< 800m
< 200 ft
Symbols :   Thunderstorms  Fog  Heavy snow  Heavy precipitations  Wind > 20 kt
SIGMETs :     Misc.  Thunderstorms  Icing  Turbulence  Mountain Waves  Volcanic Ashes







- Airport Elevation : 978 ft
- IATA code : LNZ


LOWL - Linz

CURRENT METAR :
  • 231420Z 29016KT 9999 FEW016 SCT024 BKN032 09/06 Q1019 NOSIG

EXPIRED METARs :
  • 231350Z 28017KT 9999 SCT018 BKN035 09/05 Q1018 NOSIG
  • 231320Z 28016KT 9999 SCT018 BKN033 09/05 Q1018 NOSIG
  • 231250Z 28017KT 9999 SCT018 BKN035 09/05 Q1018 NOSIG
  • 231220Z 29016KT 9999 SCT020 BKN035 10/05 Q1018 NOSIG
  • 231150Z 29017KT 9999 SCT020 BKN040 09/05 Q1018 NOSIG

TAF TAF LOWL
Valid from the 23 at 12:00 until the 24 at 12:00 UTC


231115Z 2312/2412 27011KT 9999 SCT020 BKN040 TX11/2412Z TN07/2322Z
TEMPO 2312/2319 29015G25KT -SHRA BKN020
PROB40
TEMPO 2312/2315 29020G30KT
TEMPO 2319/2407 29005KT 8000 -SHRA FEW006 BKN012
No reported NOTAMs for that airfield.



MET'MAP, your aeronautical weather chart ! - Copyright ORBIFLY December 2007 - Disclaimer

ORBIFLY MET'MAP TEAM :

Programming & Development : Alexandra Zaïnal
Concept & Development : Baudouin d'Aumeries
Co-Development & Prog : Marc-Olivier Méhu
Technical & hardware support : Manuel Goepfert

Contact : metmap@orbifly.com




SOURCES & CREDITS :

   NOAA